Time;durP1;ratioP1;P1;durP2;ratioP2;P2;SDS_P1;SDS_P2;PMS_P1;PMS_P2;Temp;Humidity;BMP_temperature;BMP_pressure;BME280_temperature;BME280_humidity;BME280_pressure;Samples;Min_cycle;Max_cycle;Signal;HPM_P1;HPM_P2
2022/04/01 00:01:19;;;;;;;14.85;12.35;;;5.20;99.90;;;;;;5070705;28;20417;-55
2022/04/01 00:03:45;;;;;;;14.90;12.18;;;5.10;99.90;;;;;;5070687;28;20074;-56
2022/04/01 00:06:11;;;;;;;17.73;12.45;;;5.10;99.90;;;;;;5070949;28;20654;-58
2022/04/01 00:08:36;;;;;;;12.80;11.02;;;5.00;99.90;;;;;;5070989;28;20020;-57
2022/04/01 00:11:02;;;;;;;14.35;12.15;;;5.10;99.90;;;;;;5070787;28;20035;-58
2022/04/01 00:13:28;;;;;;;13.23;11.20;;;5.10;99.90;;;;;;5070893;28;20078;-57
2022/04/01 00:15:54;;;;;;;13.90;11.60;;;5.10;99.90;;;;;;5069998;28;20044;-57
2022/04/01 00:18:19;;;;;;;12.82;11.32;;;5.00;99.90;;;;;;5071250;28;20021;-55
2022/04/01 00:20:45;;;;;;;13.90;11.18;;;5.00;99.90;;;;;;5070443;28;20031;-59
2022/04/01 00:23:12;;;;;;;12.85;11.35;;;5.00;99.90;;;;;;5070891;28;20025;-58
2022/04/01 00:25:39;;;;;;;14.38;11.52;;;5.00;99.90;;;;;;5070674;28;20029;-57
2022/04/01 00:28:05;;;;;;;14.45;12.57;;;4.90;99.90;;;;;;5070844;28;20074;-57
2022/04/01 00:30:33;;;;;;;14.20;11.93;;;5.00;99.90;;;;;;5069966;28;20047;-56
2022/04/01 00:32:59;;;;;;;13.52;12.02;;;5.00;99.90;;;;;;5069426;28;20032;-54
2022/04/01 00:35:25;;;;;;;13.50;11.68;;;4.90;99.90;;;;;;5070477;28;20059;-55
2022/04/01 00:37:52;;;;;;;12.85;11.45;;;4.90;99.90;;;;;;5070550;28;20056;-59
2022/04/01 00:40:18;;;;;;;13.73;11.57;;;4.80;99.90;;;;;;5070471;28;20062;-57
2022/04/01 00:42:45;;;;;;;13.10;10.93;;;4.80;99.90;;;;;;5070507;28;20029;-58
2022/04/01 00:45:11;;;;;;;13.35;11.43;;;4.80;99.90;;;;;;5070445;28;20036;-57
2022/04/01 00:47:37;;;;;;;13.50;12.10;;;4.80;99.90;;;;;;5070492;28;20025;-58
2022/04/01 00:50:04;;;;;;;13.80;11.63;;;4.80;99.90;;;;;;5070324;28;20036;-58
2022/04/01 00:52:30;;;;;;;13.88;11.40;;;4.90;99.90;;;;;;5070527;28;20107;-57
2022/04/01 00:54:56;;;;;;;15.10;11.95;;;4.80;99.90;;;;;;5070415;28;20056;-57
2022/04/01 00:57:22;;;;;;;13.43;12.02;;;4.80;99.90;;;;;;5070541;28;20052;-58
2022/04/01 00:59:48;;;;;;;13.20;11.05;;;4.80;99.90;;;;;;5070517;28;20028;-58
2022/04/01 01:02:14;;;;;;;12.20;10.77;;;4.80;99.90;;;;;;5070506;28;20074;-58
2022/04/01 01:04:41;;;;;;;13.13;11.68;;;4.70;99.90;;;;;;5070114;28;20488;-59
2022/04/01 01:07:07;;;;;;;12.18;10.77;;;4.70;99.90;;;;;;5070286;28;20114;-58
2022/04/01 01:09:33;;;;;;;13.27;11.45;;;4.70;99.90;;;;;;5070129;28;20115;-58
2022/04/01 01:11:58;;;;;;;13.15;11.32;;;4.70;99.90;;;;;;5070382;28;20166;-58
2022/04/01 01:14:28;;;;;;;13.25;11.85;;;4.60;99.90;;;;;;5074478;28;20032;-56
2022/04/01 01:16:56;;;;;;;13.68;11.02;;;4.70;99.90;;;;;;5074123;28;20024;-56
2022/04/01 01:19:22;;;;;;;12.48;10.20;;;4.60;99.90;;;;;;5073968;28;20024;-58
2022/04/01 01:21:51;;;;;;;13.35;11.02;;;4.70;99.90;;;;;;5073511;28;20032;-58
2022/04/01 01:24:17;;;;;;;13.10;10.73;;;4.60;99.90;;;;;;5073665;28;20134;-58
2022/04/01 01:26:53;;;;;;;13.05;10.48;;;4.70;99.90;;;;;;5072332;28;20094;-58
2022/04/01 01:29:28;;;;;;;11.68;10.27;;;4.60;99.90;;;;;;5072746;28;20033;-59
2022/04/01 01:32:03;;;;;;;12.10;10.00;;;4.60;99.90;;;;;;5073325;28;20112;-57
2022/04/01 01:34:32;;;;;;;12.50;10.15;;;4.60;99.90;;;;;;5073815;28;20040;-59
2022/04/01 01:36:58;;;;;;;13.10;11.55;;;4.50;99.90;;;;;;5073702;28;20103;-58
2022/04/01 01:39:25;;;;;;;13.77;11.55;;;4.50;99.90;;;;;;5073453;28;20020;-59
2022/04/01 01:41:53;;;;;;;15.25;11.13;;;4.50;99.90;;;;;;5073540;28;20021;-58
2022/04/01 01:44:20;;;;;;;11.35;10.02;;;4.60;99.90;;;;;;5073440;28;20044;-58
2022/04/01 01:46:46;;;;;;;12.30;10.23;;;4.60;99.90;;;;;;5073604;28;20033;-58
2022/04/01 01:49:12;;;;;;;12.45;10.38;;;4.60;99.90;;;;;;5073892;28;20120;-58
2022/04/01 01:57:06;;;;;;;11.60;10.40;;;4.60;99.90;;;;;;5073226;28;20039;-57
2022/04/01 01:59:33;;;;;;;11.93;10.52;;;4.60;99.90;;;;;;5073187;28;20490;-58
2022/04/01 02:02:00;;;;;;;12.13;9.95;;;4.60;99.90;;;;;;5073592;28;20071;-58
2022/04/01 02:04:26;;;;;;;11.40;9.68;;;4.50;99.90;;;;;;5072964;28;20637;-58
2022/04/01 02:06:52;;;;;;;10.88;9.50;;;4.50;99.90;;;;;;5072885;28;20028;-57
2022/04/01 02:09:18;;;;;;;11.80;10.18;;;4.40;99.90;;;;;;5073034;28;20024;-57
2022/04/01 02:11:44;;;;;;;12.35;10.43;;;4.40;99.90;;;;;;5071618;28;20028;-58
2022/04/01 02:14:11;;;;;;;13.13;10.48;;;4.40;99.90;;;;;;5071657;28;20024;-57
2022/04/01 02:16:37;;;;;;;12.05;10.13;;;4.40;99.90;;;;;;5072108;28;20034;-54
2022/04/01 02:19:03;;;;;;;10.50;9.10;;;4.40;99.90;;;;;;5071135;28;20546;-57
2022/04/01 02:21:29;;;;;;;10.57;9.48;;;4.40;99.90;;;;;;5072035;28;20120;-57
2022/04/01 02:23:55;;;;;;;10.80;9.10;;;4.40;99.90;;;;;;5071301;28;20415;-55
2022/04/01 02:26:22;;;;;;;10.63;9.38;;;4.30;99.90;;;;;;5070106;28;20023;-54
2022/04/01 02:28:47;;;;;;;9.68;8.25;;;4.30;99.90;;;;;;5071104;28;20102;-55
2022/04/01 02:31:14;;;;;;;9.63;8.40;;;4.30;99.90;;;;;;5071984;28;20488;-54
2022/04/01 02:33:42;;;;;;;10.90;9.40;;;4.30;99.90;;;;;;5072699;28;20353;-58
2022/04/01 02:36:10;;;;;;;11.15;9.02;;;4.20;99.90;;;;;;5072388;28;20087;-56
2022/04/01 02:38:40;;;;;;;12.43;11.05;;;4.30;99.90;;;;;;5072316;28;20055;-57
2022/04/01 02:41:08;;;;;;;10.15;9.05;;;4.30;99.90;;;;;;5072573;28;20054;-58
2022/04/01 02:43:35;;;;;;;9.55;8.10;;;4.30;99.90;;;;;;5072941;28;20028;-58
2022/04/01 02:46:02;;;;;;;11.88;9.50;;;4.30;99.90;;;;;;5072620;28;20043;-58
2022/04/01 02:48:28;;;;;;;10.20;9.10;;;4.30;99.90;;;;;;5072147;28;20031;-57
2022/04/01 02:50:54;;;;;;;11.77;9.00;;;4.20;99.90;;;;;;5072472;28;20120;-56
2022/04/01 02:53:20;;;;;;;11.93;9.32;;;4.20;99.90;;;;;;5072359;28;20119;-56
2022/04/01 02:55:45;;;;;;;13.15;9.75;;;4.20;99.90;;;;;;5071664;28;20033;-57
2022/04/01 02:58:12;;;;;;;11.23;9.63;;;4.20;99.90;;;;;;5072300;28;20029;-57
2022/04/01 03:00:39;;;;;;;13.02;10.40;;;4.10;99.90;;;;;;5072335;28;20017;-55
2022/04/01 03:03:07;;;;;;;12.15;10.00;;;4.20;99.90;;;;;;5072238;28;20033;-58
2022/04/01 03:05:40;;;;;;;11.98;10.15;;;4.20;99.90;;;;;;5072310;28;20670;-57
2022/04/01 03:08:07;;;;;;;11.40;10.00;;;4.20;99.90;;;;;;5070639;28;20075;-58
2022/04/01 03:10:40;;;;;;;13.38;11.38;;;4.20;99.90;;;;;;5071556;28;20024;-55
2022/04/01 03:13:07;;;;;;;12.55;10.35;;;4.20;99.90;;;;;;5071885;28;20033;-55
2022/04/01 03:15:33;;;;;;;11.25;10.05;;;4.20;99.90;;;;;;5071985;28;20052;-58
2022/04/01 03:17:59;;;;;;;12.52;10.50;;;4.10;99.90;;;;;;5071734;28;20442;-56
2022/04/01 03:20:29;;;;;;;14.93;10.05;;;4.10;99.90;;;;;;5071933;28;20051;-58
2022/04/01 03:22:55;;;;;;;11.98;9.95;;;4.20;99.90;;;;;;5071317;28;20055;-57
2022/04/01 03:25:21;;;;;;;12.82;9.85;;;4.20;99.90;;;;;;5071083;28;20020;-57
2022/04/01 03:27:48;;;;;;;13.65;10.43;;;4.10;99.90;;;;;;5070015;28;20025;-57
2022/04/01 03:30:15;;;;;;;11.35;9.73;;;4.10;99.90;;;;;;5071618;28;20040;-57
2022/04/01 03:32:42;;;;;;;12.88;10.90;;;4.10;99.90;;;;;;5071600;28;20051;-56
2022/04/01 03:35:16;;;;;;;14.68;10.07;;;4.10;99.90;;;;;;5071463;28;20032;-57
2022/04/01 03:37:43;;;;;;;10.73;9.38;;;4.10;99.90;;;;;;5071698;28;20025;-58
2022/04/01 03:40:10;;;;;;;11.77;9.77;;;4.10;99.90;;;;;;5069882;28;20055;-57
2022/04/01 03:42:35;;;;;;;11.85;9.80;;;4.10;99.90;;;;;;5070852;28;20029;-57
2022/04/01 03:45:03;;;;;;;13.10;10.40;;;4.00;99.90;;;;;;5071305;28;20031;-56
2022/04/01 03:47:40;;;;;;;12.57;10.52;;;4.00;99.90;;;;;;5071286;28;20016;-57
2022/04/01 03:50:09;;;;;;;12.52;10.13;;;4.00;99.90;;;;;;5070834;28;20077;-55
2022/04/01 03:52:35;;;;;;;13.00;10.38;;;4.00;99.90;;;;;;5070899;28;20020;-57
2022/04/01 03:55:08;;;;;;;14.23;10.13;;;3.90;99.90;;;;;;5070855;28;20070;-54
2022/04/01 03:57:39;;;;;;;12.50;10.27;;;4.00;99.90;;;;;;5070889;28;20028;-56
2022/04/01 04:00:13;;;;;;;12.35;10.40;;;4.00;99.90;;;;;;5070188;28;20160;-58
2022/04/01 04:02:43;;;;;;;11.90;9.93;;;4.00;99.90;;;;;;5071414;28;20020;-53
2022/04/01 04:05:09;;;;;;;13.02;11.10;;;4.00;99.90;;;;;;5070231;28;20028;-57
2022/04/01 04:07:36;;;;;;;12.82;10.25;;;4.00;99.90;;;;;;5070350;28;20029;-57
2022/04/01 04:10:04;;;;;;;13.15;10.77;;;4.00;99.90;;;;;;5070222;28;20021;-57
2022/04/01 04:12:31;;;;;;;13.95;10.57;;;4.00;99.90;;;;;;5070957;28;20025;-57
2022/04/01 04:14:57;;;;;;;11.75;9.88;;;4.00;99.90;;;;;;5070658;28;20102;-55
2022/04/01 04:17:44;;;;;;;13.30;8.73;;;4.00;99.90;;;;;;5070901;28;20075;-57
2022/04/01 04:20:14;;;;;;;10.93;9.20;;;4.00;99.90;;;;;;5071183;28;20051;-57
2022/04/01 04:22:40;;;;;;;10.07;8.70;;;4.00;99.90;;;;;;5069281;28;20111;-54
2022/04/01 04:25:10;;;;;;;11.63;8.93;;;3.90;99.90;;;;;;5070227;28;20032;-57
2022/04/01 04:27:38;;;;;;;11.02;9.95;;;3.90;99.90;;;;;;5070623;28;20584;-58
2022/04/01 04:30:08;;;;;;;12.43;9.02;;;3.90;99.90;;;;;;5070039;28;20028;-55
2022/04/01 04:32:35;;;;;;;13.10;8.68;;;4.00;99.90;;;;;;5070931;28;20028;-59
2022/04/01 04:35:07;;;;;;;10.48;9.18;;;3.90;99.90;;;;;;5070380;28;20027;-55
2022/04/01 04:37:36;;;;;;;10.65;8.70;;;3.90;99.90;;;;;;5071119;28;20032;-56
2022/04/01 04:40:04;;;;;;;11.50;9.23;;;3.90;99.90;;;;;;5069326;28;20468;-58
2022/04/01 04:42:32;;;;;;;13.60;10.88;;;3.80;99.90;;;;;;5070885;28;20402;-57
2022/04/01 04:44:59;;;;;;;37.88;24.65;;;3.80;99.90;;;;;;5070759;28;20345;-58
2022/04/01 04:47:26;;;;;;;24.20;17.25;;;3.80;99.90;;;;;;5069660;28;20033;-55
2022/04/01 04:49:53;;;;;;;11.98;10.13;;;3.80;99.90;;;;;;5074665;28;20051;-58
2022/04/01 04:52:20;;;;;;;14.23;11.75;;;3.90;99.90;;;;;;5074367;28;20033;-58
2022/04/01 04:54:47;;;;;;;11.50;10.30;;;3.90;99.90;;;;;;5074446;28;20459;-58
2022/04/01 04:57:15;;;;;;;10.25;9.05;;;3.90;99.90;;;;;;5074944;28;20025;-59
2022/04/01 04:59:42;;;;;;;10.35;9.00;;;3.90;99.90;;;;;;5075436;28;20027;-57
2022/04/01 05:02:16;;;;;;;11.80;9.65;;;3.90;99.90;;;;;;5075100;28;20451;-57
2022/04/01 05:05:01;;;;;;;13.13;9.52;;;3.90;99.90;;;;;;5073959;28;20020;-56
2022/04/01 05:08:05;;;;;;;10.95;9.20;;;4.00;99.90;;;;;;5072533;28;20039;-53
2022/04/01 05:10:45;;;;;;;11.35;9.48;;;3.90;99.90;;;;;;5073480;28;20036;-58
2022/04/01 05:13:23;;;;;;;12.05;10.73;;;3.80;99.90;;;;;;5074284;28;20060;-59
2022/04/01 05:15:53;;;;;;;12.27;10.30;;;3.80;99.90;;;;;;5073693;28;20028;-59
2022/04/01 05:18:29;;;;;;;12.77;10.40;;;3.80;99.90;;;;;;5073483;28;20104;-57
2022/04/01 05:21:00;;;;;;;11.98;10.05;;;3.80;99.90;;;;;;5074390;28;20020;-58
2022/04/01 05:23:32;;;;;;;13.07;11.02;;;3.90;99.90;;;;;;5074402;28;20044;-58
2022/04/01 05:26:02;;;;;;;13.82;10.60;;;3.90;99.90;;;;;;5074271;28;20024;-59
2022/04/01 05:28:44;;;;;;;14.68;10.32;;;3.90;99.90;;;;;;5074446;28;20025;-58
2022/04/01 05:31:20;;;;;;;14.82;12.07;;;4.00;99.90;;;;;;5074195;28;20036;-58
2022/04/01 05:34:00;;;;;;;14.00;11.32;;;4.00;99.90;;;;;;5074533;28;20034;-58
2022/04/01 05:36:27;;;;;;;12.43;11.18;;;4.00;99.90;;;;;;5074323;28;20041;-58
2022/04/01 05:38:54;;;;;;;12.10;10.80;;;4.00;99.90;;;;;;5074282;28;20103;-57
2022/04/01 05:41:21;;;;;;;17.17;12.70;;;4.00;99.90;;;;;;5074364;28;20025;-58
2022/04/01 05:43:47;;;;;;;11.00;9.50;;;4.00;99.90;;;;;;5072657;28;20025;-58
2022/04/01 05:46:15;;;;;;;13.75;10.25;;;4.10;99.90;;;;;;5074211;28;20090;-59
2022/04/01 05:48:41;;;;;;;11.93;10.70;;;4.10;99.90;;;;;;5074404;28;20037;-58
2022/04/01 05:51:10;;;;;;;16.17;11.50;;;4.00;99.90;;;;;;5073660;28;20024;-57
2022/04/01 05:53:37;;;;;;;11.45;10.23;;;4.00;99.90;;;;;;5073117;28;20089;-59
2022/04/01 05:56:04;;;;;;;11.00;9.90;;;3.90;99.90;;;;;;5073146;28;20017;-59
2022/04/01 05:58:29;;;;;;;12.27;10.98;;;4.00;99.90;;;;;;5073827;28;20439;-59
2022/04/01 06:01:32;;;;;;;13.90;11.07;;;4.00;99.90;;;;;;5073168;28;20123;-58
2022/04/01 06:04:19;;;;;;;15.48;12.20;;;4.00;99.90;;;;;;5073886;28;20025;-59
2022/04/01 06:06:48;;;;;;;13.50;10.88;;;4.00;99.90;;;;;;5073831;28;20070;-58
2022/04/01 06:09:36;;;;;;;12.02;10.57;;;4.00;99.90;;;;;;5072640;28;20064;-59
2022/04/01 06:12:32;;;;;;;13.25;11.02;;;4.00;99.90;;;;;;5073717;28;20414;-59
2022/04/01 06:15:21;;;;;;;12.98;10.32;;;4.00;99.90;;;;;;5073393;28;20111;-59
2022/04/01 06:17:55;;;;;;;13.40;11.30;;;4.10;99.90;;;;;;5071976;28;20064;-59
2022/04/01 06:20:24;;;;;;;14.25;11.93;;;4.00;99.90;;;;;;5073387;28;20352;-56
2022/04/01 06:22:58;;;;;;;14.18;11.82;;;4.00;99.90;;;;;;5073185;28;20025;-59
2022/04/01 06:25:34;;;;;;;14.88;11.80;;;4.00;99.90;;;;;;5073462;28;20048;-59
2022/04/01 06:28:24;;;;;;;12.55;10.77;;;4.10;99.90;;;;;;5073418;28;20025;-57
2022/04/01 06:30:52;;;;;;;14.23;12.02;;;4.00;99.90;;;;;;5073285;28;20124;-59
2022/04/01 06:33:28;;;;;;;12.38;11.05;;;4.10;99.90;;;;;;5073569;28;20424;-59
2022/04/01 06:35:56;;;;;;;16.27;11.45;;;4.10;99.90;;;;;;5073291;28;20037;-59
2022/04/01 06:39:08;;;;;;;12.93;11.52;;;4.00;99.90;;;;;;5073310;28;20042;-59
2022/04/01 06:41:43;;;;;;;15.70;12.63;;;4.10;99.90;;;;;;5073158;28;20035;-59
2022/04/01 06:44:10;;;;;;;14.50;12.40;;;4.10;99.90;;;;;;5072483;28;20025;-60
2022/04/01 06:46:36;;;;;;;15.85;13.18;;;4.10;99.90;;;;;;5072965;28;20052;-59
2022/04/01 06:49:01;;;;;;;23.70;15.80;;;4.20;99.90;;;;;;5072817;28;20043;-59
2022/04/01 06:51:27;;;;;;;18.23;14.07;;;4.20;99.90;;;;;;5072878;28;20484;-59
2022/04/01 06:53:53;;;;;;;12.60;11.18;;;4.30;99.90;;;;;;5072837;28;20028;-60
2022/04/01 06:56:19;;;;;;;10.98;9.82;;;4.30;99.90;;;;;;5072617;28;20017;-59
2022/04/01 06:58:45;;;;;;;10.98;9.82;;;4.40;99.90;;;;;;5073101;28;20078;-59
2022/04/01 07:01:14;;;;;;;11.25;10.05;;;4.40;99.90;;;;;;5072875;28;20016;-60
2022/04/01 07:03:39;;;;;;;9.60;8.60;;;4.40;99.90;;;;;;5072927;28;20028;-60
2022/04/01 07:06:06;;;;;;;12.52;8.00;;;4.50;99.90;;;;;;5072712;28;20024;-60
2022/04/01 07:08:32;;;;;;;8.98;8.07;;;4.40;99.90;;;;;;5072630;28;20019;-59
2022/04/01 07:10:58;;;;;;;8.60;7.70;;;4.40;99.90;;;;;;5070701;28;20430;-59
2022/04/01 07:13:23;;;;;;;9.57;8.57;;;4.40;99.90;;;;;;5072126;28;20028;-59
2022/04/01 07:15:50;;;;;;;9.65;8.70;;;4.40;99.90;;;;;;5071955;28;20025;-59
2022/04/01 07:18:18;;;;;;;9.00;7.70;;;4.50;99.90;;;;;;5072234;28;20070;-59
2022/04/01 07:20:45;;;;;;;13.20;7.95;;;4.50;99.90;;;;;;5072442;28;20414;-59
2022/04/01 07:23:11;;;;;;;8.85;7.95;;;4.40;99.90;;;;;;5072381;28;20387;-59
2022/04/01 07:25:36;;;;;;;8.93;8.02;;;4.50;99.90;;;;;;5072271;28;20029;-59
2022/04/01 07:28:02;;;;;;;11.52;8.00;;;4.60;99.90;;;;;;5070708;28;20032;-60
2022/04/01 07:30:28;;;;;;;7.88;7.15;;;4.70;99.90;;;;;;5072187;28;20044;-59
2022/04/01 07:32:57;;;;;;;8.60;7.80;;;4.80;99.90;;;;;;5071775;28;20028;-59
2022/04/01 07:35:23;;;;;;;9.10;8.18;;;4.90;99.90;;;;;;5071112;28;20036;-59
2022/04/01 07:37:49;;;;;;;7.70;6.82;;;5.10;99.90;;;;;;5070933;28;20024;-59
2022/04/01 07:40:14;;;;;;;6.85;6.15;;;5.20;99.90;;;;;;5070871;28;20535;-59
2022/04/01 07:42:41;;;;;;;7.82;6.38;;;5.50;99.90;;;;;;5070636;28;20017;-59
2022/04/01 07:45:07;;;;;;;7.85;7.07;;;5.40;99.90;;;;;;5070645;28;20035;-60
2022/04/01 07:47:34;;;;;;;8.25;7.45;;;5.60;99.90;;;;;;5068548;28;20259;-59
2022/04/01 07:50:01;;;;;;;6.90;6.15;;;5.50;99.90;;;;;;5067661;28;20166;-59
2022/04/01 07:52:29;;;;;;;7.57;6.88;;;5.60;99.90;;;;;;5067992;28;20020;-59
2022/04/01 07:54:55;;;;;;;9.40;6.53;;;5.50;99.90;;;;;;5070632;28;20016;-59
2022/04/01 07:57:21;;;;;;;7.35;6.65;;;5.40;99.90;;;;;;5069243;28;20029;-59
2022/04/01 07:59:47;;;;;;;8.50;7.70;;;5.50;99.90;;;;;;5070360;28;20104;-59
2022/04/01 08:02:14;;;;;;;8.02;7.20;;;5.50;99.90;;;;;;5070441;28;20641;-60
2022/04/01 08:04:39;;;;;;;8.40;7.18;;;5.50;99.90;;;;;;5069527;28;20063;-59
2022/04/01 08:07:06;;;;;;;9.32;7.78;;;5.70;99.90;;;;;;5070249;28;20413;-60
2022/04/01 08:09:33;;;;;;;12.85;11.48;;;5.80;99.90;;;;;;5070950;28;20074;-59
2022/04/01 08:12:01;;;;;;;10.88;9.77;;;5.60;99.90;;;;;;5070299;28;20028;-59
2022/04/01 08:14:27;;;;;;;8.20;7.40;;;5.80;99.90;;;;;;5070178;28;20024;-59
2022/04/01 08:16:58;;;;;;;10.18;9.23;;;5.80;99.90;;;;;;5070212;28;20416;-59
2022/04/01 08:19:24;;;;;;;23.73;10.90;;;5.70;99.90;;;;;;5070212;28;20013;-59
2022/04/01 08:21:50;;;;;;;25.27;12.20;;;5.70;99.90;;;;;;5069687;28;20021;-59
2022/04/01 08:24:16;;;;;;;30.67;20.88;;;5.90;99.90;;;;;;5069918;28;20016;-59
2022/04/01 08:26:43;;;;;;;12.27;10.80;;;5.90;99.90;;;;;;5070496;28;20453;-59
2022/04/01 08:29:08;;;;;;;8.18;7.38;;;6.00;99.90;;;;;;5069816;28;20051;-59
2022/04/01 08:31:34;;;;;;;8.45;7.65;;;6.00;99.90;;;;;;5070234;28;20044;-59
2022/04/01 08:34:00;;;;;;;13.25;9.30;;;5.90;99.90;;;;;;5068587;28;20032;-59
2022/04/01 08:36:26;;;;;;;15.25;9.18;;;6.10;99.90;;;;;;5069976;28;20047;-59
2022/04/01 08:38:52;;;;;;;10.73;9.55;;;6.20;99.90;;;;;;5069873;28;20028;-59
2022/04/01 08:41:19;;;;;;;9.65;8.20;;;6.10;99.90;;;;;;5070151;28;20024;-59
2022/04/01 08:43:47;;;;;;;9.77;8.20;;;5.80;99.90;;;;;;5070099;28;20081;-59
2022/04/01 08:46:14;;;;;;;10.07;9.10;;;5.80;99.90;;;;;;5070111;28;20029;-59
2022/04/01 08:48:41;;;;;;;13.05;9.10;;;5.80;99.90;;;;;;5069814;28;20040;-59
2022/04/01 08:51:07;;;;;;;10.20;9.20;;;5.80;99.90;;;;;;5069989;28;20103;-59
2022/04/01 08:53:41;;;;;;;16.27;14.68;;;5.80;99.90;;;;;;5069928;28;20031;-59
2022/04/01 08:56:08;;;;;;;10.95;10.00;;;5.90;99.90;;;;;;5069937;28;20024;-59
2022/04/01 08:58:34;;;;;;;11.98;8.98;;;5.90;99.90;;;;;;5069870;28;20017;-59
2022/04/01 09:01:02;;;;;;;10.70;9.15;;;6.00;99.90;;;;;;5069653;28;20036;-59
2022/04/01 09:03:29;;;;;;;9.98;8.98;;;6.20;99.90;;;;;;5069947;28;20012;-59
2022/04/01 09:05:57;;;;;;;10.07;9.07;;;6.20;99.90;;;;;;5069548;28;20032;-59
2022/04/01 09:08:25;;;;;;;9.45;8.45;;;6.30;99.90;;;;;;5070186;28;20031;-59
2022/04/01 09:11:01;;;;;;;8.07;7.28;;;6.30;99.90;;;;;;5069503;28;20373;-59
2022/04/01 09:13:30;;;;;;;10.43;8.50;;;6.40;99.90;;;;;;5069700;28;20017;-59
2022/04/01 09:15:56;;;;;;;12.52;11.25;;;6.60;99.90;;;;;;5069804;28;20025;-59
2022/04/01 09:18:37;;;;;;;12.00;10.80;;;6.80;99.90;;;;;;5069757;28;20056;-60
2022/04/01 09:21:03;;;;;;;11.18;9.63;;;6.60;99.90;;;;;;5070461;28;20021;-59
2022/04/01 09:23:30;;;;;;;15.38;13.85;;;6.60;99.90;;;;;;5069461;28;20395;-59
2022/04/01 09:25:55;;;;;;;13.88;12.38;;;6.40;99.90;;;;;;5068784;28;20617;-60
2022/04/01 09:28:29;;;;;;;12.55;11.20;;;6.70;99.90;;;;;;5070547;28;20024;-59
2022/04/01 09:31:06;;;;;;;10.23;9.18;;;6.90;99.90;;;;;;5068796;28;20159;-60
2022/04/01 09:33:45;;;;;;;9.02;8.18;;;7.00;99.90;;;;;;5069910;28;20109;-60
2022/04/01 09:36:17;;;;;;;9.43;8.52;;;6.80;99.90;;;;;;5073952;28;20025;-60
2022/04/01 09:38:56;;;;;;;10.45;8.48;;;6.60;99.90;;;;;;5074364;28;20017;-59
2022/04/01 09:41:29;;;;;;;10.88;9.68;;;6.50;99.90;;;;;;5072798;28;20124;-60
2022/04/01 09:44:17;;;;;;;11.45;8.52;;;6.60;99.90;;;;;;5074181;28;20017;-59
2022/04/01 09:46:50;;;;;;;10.73;9.63;;;6.60;99.90;;;;;;5074176;28;20119;-59
2022/04/01 09:49:39;;;;;;;10.10;8.35;;;7.00;99.90;;;;;;5074341;28;20032;-59
2022/04/01 09:52:13;;;;;;;11.48;8.77;;;7.00;99.90;;;;;;5074107;28;20041;-59
2022/04/01 09:54:46;;;;;;;;;;;7.20;99.90;;;;;;5074536;28;20089;-60
2022/04/01 09:57:13;;;;;;;8.05;7.25;;;7.10;99.90;;;;;;5073604;28;19995;-59
2022/04/01 09:59:41;;;;;;;8.15;6.85;;;7.10;99.90;;;;;;5051686;28;20039;-60
2022/04/01 10:02:07;;;;;;;9.25;7.75;;;7.20;99.90;;;;;;5036756;28;20056;-60
2022/04/01 10:04:33;;;;;;;8.23;7.43;;;7.30;99.90;;;;;;5042739;28;20488;-60
2022/04/01 10:07:01;;;;;;;9.10;7.60;;;7.20;99.90;;;;;;5043048;28;20028;-60
2022/04/01 10:09:28;;;;;;;7.40;6.70;;;7.20;99.90;;;;;;5043017;28;20033;-60
2022/04/01 10:11:57;;;;;;;8.77;7.40;;;7.10;99.90;;;;;;5042505;28;20035;-60
2022/04/01 10:14:26;;;;;;;7.95;7.15;;;7.10;99.90;;;;;;5043538;28;20043;-60
2022/04/01 10:16:55;;;;;;;7.43;6.72;;;7.00;99.90;;;;;;5043098;28;20029;-60
2022/04/01 10:19:32;;;;;;;8.45;7.65;;;7.00;99.90;;;;;;5041351;28;20423;-60
2022/04/01 10:21:59;;;;;;;8.02;7.32;;;7.00;99.90;;;;;;5042437;28;21320;-60
2022/04/01 10:27:51;;;;;;;8.68;7.75;;;7.00;99.90;;;;;;5042554;28;20079;-59
2022/04/01 10:30:18;;;;;;;8.15;7.40;;;7.10;99.90;;;;;;5042706;28;20840;-60
2022/04/01 10:32:46;;;;;;;7.82;7.03;;;7.10;99.90;;;;;;5042316;28;20045;-60
2022/04/01 10:35:28;;;;;;;7.15;6.45;;;7.10;99.90;;;;;;5042589;28;20431;-60
2022/04/01 10:38:13;;;;;;;7.28;6.25;;;7.00;99.90;;;;;;5042861;28;20029;-60
2022/04/01 10:40:41;;;;;;;5.72;5.13;;;6.90;99.90;;;;;;5043440;28;20036;-60
2022/04/01 10:43:13;;;;;;;6.82;6.20;;;6.80;99.90;;;;;;5040739;28;20025;-60
2022/04/01 10:45:40;;;;;;;6.55;5.95;;;6.70;99.90;;;;;;5039830;28;20025;-60
2022/04/01 10:51:38;;;;;;;7.38;5.82;;;6.80;99.90;;;;;;5040623;28;20095;-60
2022/04/01 10:54:12;;;;;;;6.82;6.10;;;6.60;99.90;;;;;;5047958;28;20040;-59
2022/04/01 10:56:43;;;;;;;7.35;5.75;;;6.80;99.90;;;;;;5051488;28;20078;-59
2022/04/01 10:59:10;;;;;;;7.10;6.40;;;6.70;99.90;;;;;;5050740;28;20384;-59
2022/04/01 11:01:41;;;;;;;7.32;6.60;;;6.60;99.90;;;;;;5051832;28;20021;-59
2022/04/01 11:04:12;;;;;;;7.25;6.55;;;6.60;99.90;;;;;;5052024;28;20376;-60
2022/04/01 11:06:57;;;;;;;6.75;6.15;;;6.50;99.90;;;;;;5052322;28;20589;-59
2022/04/01 11:09:38;;;;;;;6.60;6.00;;;6.40;99.90;;;;;;5052022;28;20119;-60
2022/04/01 11:12:17;;;;;;;8.32;7.20;;;6.50;99.90;;;;;;5051561;28;20043;-60
2022/04/01 11:14:55;;;;;;;6.18;5.57;;;6.70;99.90;;;;;;5051319;28;20123;-60
2022/04/01 11:17:29;;;;;;;7.82;6.05;;;7.00;99.90;;;;;;5051416;28;20025;-60
2022/04/01 11:20:24;;;;;;;5.80;5.20;;;7.10;99.90;;;;;;5042439;28;20020;-59
2022/04/01 11:22:53;;;;;;;5.95;5.32;;;7.20;99.90;;;;;;5039302;28;20162;-60
2022/04/01 11:25:24;;;;;;;6.90;6.20;;;7.40;99.90;;;;;;5039769;28;20029;-60
2022/04/01 11:28:08;;;;;;;5.72;5.20;;;7.40;99.90;;;;;;5039754;28;20039;-60
2022/04/01 11:30:40;;;;;;;;;;;7.50;99.90;;;;;;5040681;28;20037;-60
2022/04/01 11:33:10;;;;;;;6.30;5.68;;;7.60;99.90;;;;;;5041562;28;20004;-60
2022/04/01 11:35:41;;;;;;;6.60;5.90;;;7.70;99.90;;;;;;5039856;28;20037;-60
2022/04/01 11:38:13;;;;;;;6.40;5.25;;;7.80;99.90;;;;;;5039654;28;20055;-60
2022/04/01 11:40:40;;;;;;;20.00;7.05;;;7.90;99.90;;;;;;5040107;28;20017;-60
2022/04/01 11:43:15;;;;;;;16.20;5.18;;;7.90;99.90;;;;;;5038511;28;20021;-60
2022/04/01 11:45:46;;;;;;;7.47;5.63;;;7.80;99.90;;;;;;5039522;28;20111;-60
2022/04/01 11:48:26;;;;;;;6.38;5.68;;;7.80;99.90;;;;;;5040680;28;20043;-60
2022/04/01 11:50:55;;;;;;;5.57;5.05;;;7.70;99.90;;;;;;5040949;28;21531;-59
2022/04/01 11:53:24;;;;;;;6.15;5.65;;;7.60;99.90;;;;;;5041245;28;20108;-60
2022/04/01 11:55:50;;;;;;;7.80;7.10;;;7.40;99.90;;;;;;5041046;28;20028;-60
2022/04/01 11:58:16;;;;;;;8.10;6.20;;;7.50;99.90;;;;;;5039379;28;20115;-60
2022/04/01 12:00:42;;;;;;;28.35;19.05;;;7.50;99.90;;;;;;5040963;28;20590;-60
2022/04/01 12:03:11;;;;;;;35.58;20.55;;;7.40;99.90;;;;;;5039981;28;20025;-60
2022/04/01 12:05:39;;;;;;;36.60;19.25;;;7.50;99.90;;;;;;5038616;28;20045;-60
2022/04/01 12:10:56;;;;;;;32.08;19.05;;;7.70;99.90;;;;;;5040874;28;20479;-59
2022/04/01 12:13:23;;;;;;;10.20;8.00;;;7.50;99.90;;;;;;5041209;28;21232;-60
2022/04/01 12:15:50;;;;;;;10.00;7.05;;;7.40;99.90;;;;;;5041122;28;20044;-59
2022/04/01 12:18:19;;;;;;;15.20;8.63;;;7.30;99.90;;;;;;5040361;28;20044;-60
2022/04/01 12:20:50;;;;;;;10.82;8.10;;;7.40;99.90;;;;;;5040734;28;20036;-60
2022/04/01 12:23:18;;;;;;;11.52;8.70;;;7.30;99.90;;;;;;5040500;28;20040;-60
2022/04/01 12:25:45;;;;;;;9.15;6.80;;;7.30;99.90;;;;;;5046694;28;20154;-60
2022/04/01 12:28:16;;;;;;;7.28;6.68;;;7.40;99.90;;;;;;5059532;28;20036;-60
2022/04/01 12:30:47;;;;;;;7.90;6.00;;;7.20;99.90;;;;;;5060773;28;20391;-60
2022/04/01 12:33:20;;;;;;;7.57;5.45;;;7.40;99.90;;;;;;5043769;28;20566;-60
2022/04/01 12:35:48;;;;;;;7.88;7.00;;;7.30;99.90;;;;;;5059386;28;20481;-59
2022/04/01 12:38:14;;;;;;;7.63;6.45;;;7.30;99.90;;;;;;5058836;28;20468;-60
2022/04/01 12:40:43;;;;;;;7.03;5.60;;;7.20;99.90;;;;;;5051305;28;20024;-59
2022/04/01 12:43:26;;;;;;;6.68;6.07;;;7.20;99.90;;;;;;5041033;28;20025;-59
2022/04/01 12:46:03;;;;;;;25.98;7.95;;;7.20;99.90;;;;;;5040583;28;20072;-59
2022/04/01 12:48:29;;;;;;;8.52;6.53;;;7.00;99.90;;;;;;5040982;28;20044;-59
2022/04/01 12:51:02;;;;;;;197.68;113.75;;;7.10;99.90;;;;;;5039883;28;20043;-59
2022/04/01 12:53:29;;;;;;;942.70;596.80;;;7.00;99.90;;;;;;5041106;28;20044;-59
2022/04/01 12:56:18;;;;;;;585.63;342.10;;;7.10;99.90;;;;;;5040906;28;20048;-59
2022/04/01 12:58:53;;;;;;;179.20;103.97;;;7.00;99.90;;;;;;5039915;28;22304;-59
2022/04/01 13:01:21;;;;;;;31.63;21.38;;;7.00;99.90;;;;;;5040605;28;20112;-59
2022/04/01 13:03:48;;;;;;;11.00;9.50;;;6.80;99.90;;;;;;5039452;28;20025;-59
2022/04/01 13:06:15;;;;;;;9.48;8.57;;;6.80;99.90;;;;;;5039179;28;20021;-59
2022/04/01 13:08:41;;;;;;;9.52;7.93;;;6.70;99.90;;;;;;5039984;28;20083;-59
2022/04/01 13:11:13;;;;;;;16.50;7.90;;;6.50;99.90;;;;;;5043927;28;22138;-59
2022/04/01 13:13:40;;;;;;;13.02;9.50;;;6.50;99.90;;;;;;5044614;28;20029;-59